Time;durP1;ratioP1;P1;durP2;ratioP2;P2;SDS_P1;SDS_P2;PMS_P1;PMS_P2;Temp;Humidity;BMP_temperature;BMP_pressure;BME280_temperature;BME280_humidity;BME280_pressure;Samples;Min_cycle;Max_cycle;Signal;HPM_P1;HPM_P2
2023/10/31 00:01:08;;;;;;;1.30;0.95;;;11.40;99.90;;;;;;4983936;28;20391;-73
2023/10/31 00:03:34;;;;;;;2.10;1.08;;;11.40;99.90;;;;;;4992567;28;20038;-73
2023/10/31 00:05:59;;;;;;;0.82;0.65;;;11.40;99.90;;;;;;4987095;28;20062;-73
2023/10/31 00:08:25;;;;;;;1.65;0.90;;;11.40;99.90;;;;;;4983276;28;20035;-72
2023/10/31 00:10:50;;;;;;;1.50;1.05;;;11.40;99.90;;;;;;4987166;28;20034;-71
2023/10/31 00:13:16;;;;;;;1.55;1.00;;;11.40;99.90;;;;;;4981846;28;20034;-73
2023/10/31 00:15:41;;;;;;;1.33;0.88;;;11.40;99.90;;;;;;4983367;28;20038;-72
2023/10/31 00:18:07;;;;;;;1.25;0.88;;;11.40;99.90;;;;;;4988129;28;20030;-72
2023/10/31 00:20:32;;;;;;;1.90;1.10;;;11.40;99.90;;;;;;4990413;28;20467;-71
2023/10/31 00:22:58;;;;;;;1.67;1.05;;;11.40;99.90;;;;;;4986821;28;20034;-71
2023/10/31 00:25:23;;;;;;;1.90;0.90;;;11.40;99.90;;;;;;4986999;28;20097;-72
2023/10/31 00:27:49;;;;;;;2.10;0.85;;;11.40;99.90;;;;;;4978610;28;20023;-72
2023/10/31 00:30:14;;;;;;;1.58;0.90;;;11.40;99.90;;;;;;4984721;28;20062;-72
2023/10/31 00:32:40;;;;;;;1.00;0.80;;;11.40;99.90;;;;;;4989499;28;20127;-72
2023/10/31 00:35:06;;;;;;;1.55;0.80;;;11.40;99.90;;;;;;4981653;28;20046;-73
2023/10/31 00:37:31;;;;;;;1.75;0.90;;;11.40;99.90;;;;;;4987888;28;20050;-72
2023/10/31 00:39:57;;;;;;;3.45;1.35;;;11.40;99.90;;;;;;4988978;28;20044;-72
2023/10/31 00:42:22;;;;;;;1.55;1.05;;;11.40;99.90;;;;;;4982827;28;20461;-72
2023/10/31 00:44:47;;;;;;;3.53;1.30;;;11.40;99.90;;;;;;4985732;28;20152;-72
2023/10/31 00:47:14;;;;;;;2.30;1.20;;;11.40;99.90;;;;;;4980963;28;20042;-73
2023/10/31 00:49:39;;;;;;;1.95;1.25;;;11.40;99.90;;;;;;4983729;28;20033;-71
2023/10/31 00:52:05;;;;;;;1.83;0.90;;;11.40;99.90;;;;;;4984424;28;20415;-72
2023/10/31 00:54:31;;;;;;;1.10;0.90;;;11.40;99.90;;;;;;4982304;28;20038;-72
2023/10/31 00:56:56;;;;;;;2.25;1.33;;;11.40;99.90;;;;;;4989684;28;20047;-72
2023/10/31 00:59:21;;;;;;;3.17;1.08;;;11.40;99.90;;;;;;4983543;28;20034;-73
2023/10/31 01:01:47;;;;;;;1.20;0.88;;;11.40;99.90;;;;;;4990044;28;20540;-73
2023/10/31 01:04:12;;;;;;;2.20;1.20;;;11.40;99.90;;;;;;4987596;28;20038;-72
2023/10/31 01:06:42;;;;;;;2.40;1.50;;;11.40;99.90;;;;;;4988378;28;20092;-72
2023/10/31 01:09:07;;;;;;;1.80;1.00;;;11.40;99.90;;;;;;4992979;28;20479;-72
2023/10/31 01:11:33;;;;;;;2.83;1.00;;;11.40;99.90;;;;;;4989018;28;20068;-72
2023/10/31 01:13:58;;;;;;;2.33;1.35;;;11.40;99.90;;;;;;4980129;28;20043;-73
2023/10/31 01:16:24;;;;;;;1.60;0.98;;;11.50;99.90;;;;;;4987916;28;20035;-72
2023/10/31 01:18:49;;;;;;;2.78;1.40;;;11.40;99.90;;;;;;4990861;28;20045;-74
2023/10/31 01:21:15;;;;;;;2.63;1.25;;;11.40;99.90;;;;;;4991296;28;20081;-72
2023/10/31 01:23:40;;;;;;;2.13;1.27;;;11.40;99.90;;;;;;4985053;28;20034;-71
2023/10/31 01:26:06;;;;;;;2.70;1.30;;;11.40;99.90;;;;;;4995685;28;20368;-73
2023/10/31 01:28:31;;;;;;;3.58;1.58;;;11.40;99.90;;;;;;4989583;28;20034;-71
2023/10/31 01:30:57;;;;;;;2.53;1.52;;;11.40;99.90;;;;;;4991905;28;20042;-72
2023/10/31 01:33:22;;;;;;;2.10;1.30;;;11.40;99.90;;;;;;4991470;28;20030;-74
2023/10/31 01:35:47;;;;;;;2.45;1.42;;;11.50;99.90;;;;;;4992579;28;20026;-72
2023/10/31 01:38:13;;;;;;;4.20;1.77;;;11.50;99.90;;;;;;4989147;28;20125;-73
2023/10/31 01:40:39;;;;;;;2.65;1.58;;;11.40;99.90;;;;;;4991110;28;20030;-72
2023/10/31 01:43:05;;;;;;;2.55;1.58;;;11.40;99.90;;;;;;4982230;28;20479;-72
2023/10/31 01:45:30;;;;;;;2.50;1.55;;;11.40;99.90;;;;;;4993737;28;20112;-72
2023/10/31 01:47:56;;;;;;;2.47;1.30;;;11.50;99.90;;;;;;4997567;28;20054;-72
2023/10/31 01:50:21;;;;;;;3.22;1.52;;;11.40;99.90;;;;;;4987619;28;20514;-72
2023/10/31 01:52:47;;;;;;;3.15;1.63;;;11.50;99.90;;;;;;4990617;28;20361;-73
2023/10/31 01:55:14;;;;;;;3.72;1.55;;;11.50;99.90;;;;;;4991820;28;20045;-73
2023/10/31 01:57:40;;;;;;;2.65;1.30;;;11.50;99.90;;;;;;4984186;28;20034;-72
2023/10/31 02:00:06;;;;;;;2.33;1.42;;;11.50;99.90;;;;;;4987929;28;20435;-73
2023/10/31 02:02:34;;;;;;;1.70;1.30;;;11.50;99.90;;;;;;4987063;28;20049;-72
2023/10/31 02:04:59;;;;;;;2.25;1.15;;;11.50;99.90;;;;;;4990079;28;20041;-72
2023/10/31 02:07:25;;;;;;;1.90;1.15;;;11.50;99.90;;;;;;4985192;28;20034;-71
2023/10/31 02:09:51;;;;;;;2.60;1.45;;;11.50;99.90;;;;;;4987780;28;20037;-72
2023/10/31 02:12:36;;;;;;;3.13;1.38;;;11.50;99.90;;;;;;4980378;28;20446;-72
2023/10/31 02:15:02;;;;;;;2.25;1.35;;;11.50;99.90;;;;;;4989916;28;20065;-73
2023/10/31 02:17:28;;;;;;;2.15;1.13;;;11.50;99.90;;;;;;4990288;28;20058;-72
2023/10/31 02:19:54;;;;;;;2.05;1.17;;;11.50;99.90;;;;;;4994666;28;20033;-73
2023/10/31 02:22:20;;;;;;;3.15;1.70;;;11.50;99.90;;;;;;4987792;28;20031;-73
2023/10/31 02:24:45;;;;;;;2.58;1.35;;;11.50;99.90;;;;;;4988845;28;20050;-73
2023/10/31 02:27:10;;;;;;;3.20;1.70;;;11.50;99.90;;;;;;4988528;28;20422;-72
2023/10/31 02:29:36;;;;;;;3.78;1.75;;;11.60;99.90;;;;;;4984011;28;20030;-72
2023/10/31 02:32:02;;;;;;;3.47;1.50;;;11.50;99.90;;;;;;4982307;28;20038;-72
2023/10/31 02:34:27;;;;;;;2.42;1.38;;;11.60;99.90;;;;;;4992236;28;20038;-72
2023/10/31 02:36:53;;;;;;;2.40;1.48;;;11.60;99.90;;;;;;4989754;28;20109;-72
2023/10/31 02:39:19;;;;;;;4.05;2.17;;;11.60;99.90;;;;;;4989454;28;20034;-73
2023/10/31 02:41:44;;;;;;;3.60;2.53;;;11.60;99.90;;;;;;4989603;28;20062;-72
2023/10/31 02:44:10;;;;;;;3.30;1.88;;;11.60;99.90;;;;;;4985294;28;20034;-72
2023/10/31 02:46:38;;;;;;;3.50;1.75;;;11.60;99.90;;;;;;4988260;28;20066;-72
2023/10/31 02:49:04;;;;;;;3.38;2.00;;;11.60;99.90;;;;;;4989623;28;20027;-72
2023/10/31 02:51:29;;;;;;;5.25;2.28;;;11.60;99.90;;;;;;4988967;28;20041;-72
2023/10/31 02:53:55;;;;;;;5.13;2.25;;;11.60;99.90;;;;;;4987855;28;20155;-72
2023/10/31 02:56:20;;;;;;;4.07;2.30;;;11.60;99.90;;;;;;4994240;28;20045;-72
2023/10/31 02:58:46;;;;;;;4.80;2.50;;;11.60;99.90;;;;;;4986675;28;20460;-73
2023/10/31 03:01:11;;;;;;;5.35;2.63;;;11.60;99.90;;;;;;4987366;28;20050;-72
2023/10/31 03:03:37;;;;;;;4.57;2.40;;;11.60;99.90;;;;;;4986350;28;20456;-74
2023/10/31 03:06:04;;;;;;;4.70;2.42;;;11.60;99.90;;;;;;4984490;28;20030;-72
2023/10/31 03:08:29;;;;;;;5.05;2.70;;;11.60;99.90;;;;;;4984123;28;20054;-71
2023/10/31 03:10:55;;;;;;;5.55;2.88;;;11.60;99.90;;;;;;4981953;28;20069;-72
2023/10/31 03:13:20;;;;;;;6.68;2.55;;;11.70;99.90;;;;;;4977098;28;20088;-74
2023/10/31 03:15:47;;;;;;;4.35;2.53;;;11.70;99.90;;;;;;4983165;28;20053;-72
2023/10/31 03:18:14;;;;;;;4.75;2.40;;;11.70;99.90;;;;;;4990817;28;20390;-72
2023/10/31 03:20:39;;;;;;;4.85;2.80;;;11.60;99.90;;;;;;4982641;28;20457;-73
2023/10/31 03:23:05;;;;;;;4.63;2.72;;;11.70;99.90;;;;;;4983989;28;20049;-74
2023/10/31 03:25:30;;;;;;;4.22;2.72;;;11.60;99.90;;;;;;4983241;28;20062;-73
2023/10/31 03:27:56;;;;;;;6.25;2.92;;;11.70;99.90;;;;;;4989672;28;20099;-72
2023/10/31 03:30:21;;;;;;;6.38;2.90;;;11.70;99.90;;;;;;4985745;28;20049;-73
2023/10/31 03:32:47;;;;;;;6.57;3.58;;;11.70;99.90;;;;;;4985419;28;20038;-72
2023/10/31 03:35:12;;;;;;;6.10;2.92;;;11.70;99.90;;;;;;4991228;28;20112;-72
2023/10/31 03:37:41;;;;;;;5.80;2.95;;;11.70;99.90;;;;;;4985108;28;20051;-72
2023/10/31 03:40:08;;;;;;;4.88;2.88;;;11.70;99.90;;;;;;4988921;28;20475;-72
2023/10/31 03:42:34;;;;;;;5.22;3.20;;;11.70;99.90;;;;;;4985756;28;20042;-72
2023/10/31 03:44:59;;;;;;;6.18;3.35;;;11.70;99.90;;;;;;4988656;28;20038;-72
2023/10/31 03:47:25;;;;;;;5.95;3.05;;;11.70;99.90;;;;;;4986469;28;20461;-73
2023/10/31 03:49:50;;;;;;;5.05;2.83;;;11.70;99.90;;;;;;4993232;28;20724;-72
2023/10/31 03:52:15;;;;;;;4.45;2.72;;;11.70;99.90;;;;;;4986396;28;20026;-73
2023/10/31 03:54:41;;;;;;;5.30;2.67;;;11.70;99.90;;;;;;4987446;28;20073;-71
2023/10/31 03:57:06;;;;;;;7.85;3.40;;;11.70;99.90;;;;;;4982038;28;20033;-71
2023/10/31 03:59:32;;;;;;;4.82;2.65;;;11.70;99.90;;;;;;4984109;28;20113;-73
2023/10/31 04:01:57;;;;;;;5.65;2.92;;;11.70;99.90;;;;;;4988572;28;20431;-72
2023/10/31 04:04:23;;;;;;;5.78;3.25;;;11.70;99.90;;;;;;4983449;28;20126;-73
2023/10/31 04:06:48;;;;;;;5.55;2.88;;;11.70;99.90;;;;;;4982963;28;20125;-72
2023/10/31 04:09:14;;;;;;;6.97;3.28;;;11.70;99.90;;;;;;4995167;28;20026;-71
2023/10/31 04:11:39;;;;;;;6.32;3.33;;;11.70;99.90;;;;;;4989720;28;20396;-71
2023/10/31 04:14:05;;;;;;;5.68;3.15;;;11.70;99.90;;;;;;4987654;28;20041;-72
2023/10/31 04:16:31;;;;;;;6.65;3.70;;;11.70;99.90;;;;;;4988363;28;20109;-72
2023/10/31 04:18:56;;;;;;;7.55;3.58;;;11.70;99.90;;;;;;4992538;28;20113;-72
2023/10/31 04:21:22;;;;;;;6.78;3.88;;;11.70;99.90;;;;;;4990763;28;20481;-74
2023/10/31 04:23:47;;;;;;;6.07;3.17;;;11.70;99.90;;;;;;4993191;28;20077;-72
2023/10/31 04:26:13;;;;;;;7.95;4.00;;;11.70;99.90;;;;;;4981525;28;20052;-74
2023/10/31 04:28:39;;;;;;;6.57;3.25;;;11.70;99.90;;;;;;4986699;28;20240;-72
2023/10/31 04:31:04;;;;;;;6.55;3.50;;;11.70;99.90;;;;;;4986048;28;20046;-72
2023/10/31 04:33:30;;;;;;;7.22;3.58;;;11.70;99.90;;;;;;4990428;28;20490;-71
2023/10/31 04:35:56;;;;;;;7.70;3.92;;;11.70;99.90;;;;;;4990194;28;20481;-73
2023/10/31 04:38:21;;;;;;;5.45;3.22;;;11.70;99.90;;;;;;4995500;28;20080;-73
2023/10/31 04:40:46;;;;;;;8.13;3.40;;;11.70;99.90;;;;;;4992895;28;20085;-72
2023/10/31 04:43:12;;;;;;;5.97;3.35;;;11.70;99.90;;;;;;4994372;28;20498;-72
2023/10/31 04:45:37;;;;;;;6.53;3.55;;;11.70;99.90;;;;;;4986778;28;20026;-76
2023/10/31 04:48:03;;;;;;;7.65;3.65;;;11.70;99.90;;;;;;4987206;28;20045;-72
2023/10/31 04:50:28;;;;;;;6.85;3.50;;;11.70;99.90;;;;;;4990176;28;20059;-73
2023/10/31 04:52:54;;;;;;;6.05;3.03;;;11.70;99.90;;;;;;4988871;28;20105;-73
2023/10/31 04:55:19;;;;;;;5.75;2.80;;;11.70;99.90;;;;;;4989498;28;20065;-74
2023/10/31 04:57:45;;;;;;;7.72;3.55;;;11.70;99.90;;;;;;4983410;28;20104;-72
2023/10/31 05:00:11;;;;;;;6.00;3.28;;;11.80;99.90;;;;;;4986838;28;20380;-76
2023/10/31 05:02:36;;;;;;;6.25;3.33;;;11.70;99.90;;;;;;4985316;28;20085;-72
2023/10/31 05:05:02;;;;;;;5.63;2.88;;;11.70;99.90;;;;;;4991861;28;20499;-73
2023/10/31 05:07:27;;;;;;;5.82;3.00;;;11.70;99.90;;;;;;4992169;28;20062;-72
2023/10/31 05:09:53;;;;;;;5.57;2.80;;;11.70;99.90;;;;;;4984836;28;20117;-72
2023/10/31 05:12:18;;;;;;;6.18;3.08;;;11.70;99.90;;;;;;4989306;28;20054;-72
2023/10/31 05:14:44;;;;;;;5.38;2.75;;;11.80;99.90;;;;;;4986736;28;20030;-72
2023/10/31 05:17:09;;;;;;;4.70;2.67;;;11.80;99.90;;;;;;4990938;28;20034;-72
2023/10/31 05:19:35;;;;;;;5.80;2.78;;;11.70;99.90;;;;;;4991183;28;20066;-72
2023/10/31 05:22:00;;;;;;;6.70;3.50;;;11.70;99.90;;;;;;4983792;28;20042;-71
2023/10/31 05:24:26;;;;;;;8.88;3.53;;;11.70;99.90;;;;;;4986906;28;20061;-72
2023/10/31 05:26:52;;;;;;;6.78;3.17;;;11.70;99.90;;;;;;4983519;28;20041;-71
2023/10/31 05:29:17;;;;;;;8.27;3.53;;;11.70;99.90;;;;;;4989035;28;20471;-68
2023/10/31 05:31:43;;;;;;;6.25;3.42;;;11.80;99.90;;;;;;4984054;28;20030;-68
2023/10/31 05:34:08;;;;;;;6.93;3.13;;;11.80;99.90;;;;;;4992986;28;20111;-68
2023/10/31 05:36:34;;;;;;;5.32;3.13;;;11.80;99.90;;;;;;4989313;28;20548;-68
2023/10/31 05:38:59;;;;;;;5.45;3.22;;;11.80;99.90;;;;;;4981164;28;20023;-67
2023/10/31 05:41:25;;;;;;;4.90;2.53;;;11.80;99.90;;;;;;4983925;28;20161;-67
2023/10/31 05:43:50;;;;;;;4.63;2.35;;;11.80;99.90;;;;;;4993685;28;20383;-67
2023/10/31 05:46:16;;;;;;;4.20;2.38;;;11.80;99.90;;;;;;4989802;28;20042;-68
2023/10/31 05:48:44;;;;;;;4.13;1.88;;;11.80;99.90;;;;;;4987924;28;20034;-69
2023/10/31 05:51:17;;;;;;;2.78;1.73;;;11.80;99.90;;;;;;4988270;28;20426;-70
2023/10/31 05:53:48;;;;;;;2.05;1.30;;;11.80;99.90;;;;;;4994344;28;20482;-68
2023/10/31 05:56:15;;;;;;;2.28;1.20;;;11.80;99.90;;;;;;4993950;28;20029;-66
2023/10/31 05:58:41;;;;;;;2.15;1.45;;;11.70;99.90;;;;;;4984439;28;20031;-67
2023/10/31 06:01:07;;;;;;;1.60;0.88;;;11.70;99.90;;;;;;4984551;28;20041;-68
2023/10/31 06:03:33;;;;;;;2.13;1.33;;;11.70;99.90;;;;;;4988856;28;20348;-68
2023/10/31 06:05:59;;;;;;;1.25;0.85;;;11.60;99.90;;;;;;4984675;28;20038;-67
2023/10/31 06:08:27;;;;;;;2.33;1.10;;;11.60;99.90;;;;;;4985462;28;20033;-67
2023/10/31 06:10:53;;;;;;;1.40;0.95;;;11.50;99.90;;;;;;4986874;28;20030;-67
2023/10/31 06:13:19;;;;;;;1.98;1.23;;;11.50;99.90;;;;;;4981469;28;20038;-68
2023/10/31 06:15:44;;;;;;;2.72;1.42;;;11.50;99.90;;;;;;4987428;28;20073;-68
2023/10/31 06:18:10;;;;;;;3.75;1.65;;;11.50;99.90;;;;;;4991854;28;20034;-67
2023/10/31 06:20:35;;;;;;;3.35;1.48;;;11.50;99.90;;;;;;4990544;28;20039;-68
2023/10/31 06:23:03;;;;;;;3.67;1.70;;;11.50;99.90;;;;;;4986933;28;20043;-72
2023/10/31 06:25:29;;;;;;;3.90;1.80;;;11.50;99.90;;;;;;4988690;28;20096;-68
2023/10/31 06:27:54;;;;;;;2.42;1.20;;;11.50;99.90;;;;;;4979960;28;20132;-67
2023/10/31 06:30:20;;;;;;;1.80;1.20;;;11.40;99.90;;;;;;4983335;28;20474;-67
2023/10/31 06:32:45;;;;;;;2.10;1.20;;;11.40;99.90;;;;;;4992665;28;20057;-68
2023/10/31 06:35:11;;;;;;;2.80;1.60;;;11.40;99.90;;;;;;4986138;28;20052;-67
2023/10/31 06:37:36;;;;;;;4.10;1.83;;;11.30;99.90;;;;;;4986022;28;20379;-67
2023/10/31 06:40:03;;;;;;;3.88;2.13;;;11.30;99.90;;;;;;4987001;28;20038;-68
2023/10/31 06:42:29;;;;;;;4.05;2.10;;;11.20;99.90;;;;;;4985020;28;20476;-67
2023/10/31 06:44:55;;;;;;;4.35;2.33;;;11.10;99.90;;;;;;4984647;28;20423;-67
2023/10/31 06:47:20;;;;;;;3.40;2.10;;;11.10;99.90;;;;;;4985087;28;20042;-67
2023/10/31 06:49:46;;;;;;;4.45;2.47;;;11.00;99.90;;;;;;4985414;28;20065;-67
2023/10/31 06:52:11;;;;;;;5.72;2.60;;;11.00;99.90;;;;;;4986731;28;20054;-67
2023/10/31 06:54:37;;;;;;;6.93;2.50;;;10.90;99.90;;;;;;4987675;28;20036;-67
2023/10/31 06:57:02;;;;;;;5.15;2.53;;;10.90;99.90;;;;;;4984798;28;20033;-67
2023/10/31 06:59:29;;;;;;;5.35;2.53;;;10.90;99.90;;;;;;4985396;28;20076;-67
2023/10/31 07:01:54;;;;;;;4.13;2.50;;;10.90;99.90;;;;;;4980037;28;20391;-67
2023/10/31 07:04:20;;;;;;;2.08;1.30;;;10.80;99.90;;;;;;4988519;28;20038;-67
2023/10/31 07:06:45;;;;;;;2.38;1.17;;;10.70;99.90;;;;;;4984933;28;20046;-71
2023/10/31 07:09:11;;;;;;;1.08;0.70;;;10.60;99.90;;;;;;4987123;28;20125;-67
2023/10/31 07:11:36;;;;;;;1.00;0.75;;;10.50;99.90;;;;;;4985576;28;20422;-67
2023/10/31 07:14:02;;;;;;;0.65;0.50;;;10.40;99.90;;;;;;4980315;28;20161;-69
2023/10/31 07:16:28;;;;;;;0.47;0.45;;;10.40;99.90;;;;;;4978509;28;20127;-67
2023/10/31 07:18:53;;;;;;;1.00;0.55;;;10.30;99.90;;;;;;4985968;28;20391;-67
2023/10/31 07:21:19;;;;;;;0.52;0.40;;;10.30;99.90;;;;;;4987154;28;20045;-67
2023/10/31 07:23:44;;;;;;;0.90;0.55;;;10.30;99.90;;;;;;4990969;28;20034;-67
2023/10/31 07:26:10;;;;;;;0.93;0.50;;;10.20;99.90;;;;;;4984633;28;20058;-66
2023/10/31 07:28:36;;;;;;;0.30;0.30;;;10.20;99.90;;;;;;4981611;28;20038;-67
2023/10/31 07:31:01;;;;;;;0.40;0.30;;;10.10;99.90;;;;;;4989034;28;20046;-67
2023/10/31 07:33:27;;;;;;;0.30;0.28;;;10.10;99.90;;;;;;4989973;28;20038;-67
2023/10/31 07:35:52;;;;;;;0.25;0.22;;;10.10;99.90;;;;;;4986374;28;20034;-67
2023/10/31 07:38:18;;;;;;;0.50;0.30;;;10.10;99.90;;;;;;4989415;28;20037;-67
2023/10/31 07:40:43;;;;;;;0.10;0.10;;;10.10;99.90;;;;;;4987410;28;20537;-66
2023/10/31 07:43:09;;;;;;;0.10;0.10;;;10.10;99.90;;;;;;4984821;28;20122;-65
2023/10/31 07:45:35;;;;;;;0.20;0.20;;;10.10;99.90;;;;;;4990103;28;20482;-65
2023/10/31 07:48:01;;;;;;;0.30;0.22;;;10.10;99.90;;;;;;4987089;28;20022;-65
2023/10/31 07:50:27;;;;;;;0.20;0.20;;;10.10;99.90;;;;;;4987456;28;20069;-65
2023/10/31 07:52:53;;;;;;;0.28;0.28;;;10.00;99.90;;;;;;4983828;28;20423;-65
2023/10/31 07:55:18;;;;;;;0.13;0.13;;;10.10;99.90;;;;;;4989786;28;20045;-65
2023/10/31 07:57:44;;;;;;;0.20;0.20;;;9.90;99.90;;;;;;4978642;28;20034;-64
2023/10/31 08:00:11;;;;;;;2.08;0.50;;;9.90;99.90;;;;;;4986787;28;20387;-65
2023/10/31 08:02:36;;;;;;;0.30;0.30;;;9.90;99.90;;;;;;4989765;28;20026;-66
2023/10/31 08:05:02;;;;;;;0.32;0.32;;;9.90;99.90;;;;;;4988334;28;20484;-67
2023/10/31 08:07:30;;;;;;;0.25;0.25;;;9.80;99.90;;;;;;4984677;28;20041;-65
2023/10/31 08:09:56;;;;;;;0.50;0.50;;;9.80;99.90;;;;;;4983160;28;20578;-65
2023/10/31 08:12:21;;;;;;;0.30;0.30;;;9.80;99.90;;;;;;4988550;28;20080;-66
2023/10/31 08:14:47;;;;;;;0.80;0.30;;;9.80;99.90;;;;;;4988766;28;20030;-67
2023/10/31 08:17:12;;;;;;;0.17;0.17;;;9.80;99.90;;;;;;4990171;28;20050;-68
2023/10/31 08:19:37;;;;;;;0.30;0.30;;;9.80;99.80;;;;;;4982948;28;20431;-65
2023/10/31 08:22:03;;;;;;;0.05;0.05;;;9.80;99.90;;;;;;4979123;28;20080;-66
2023/10/31 08:24:28;;;;;;;0.47;0.30;;;9.80;99.80;;;;;;4987714;28;20030;-67
2023/10/31 08:26:54;;;;;;;0.22;0.13;;;9.80;99.90;;;;;;4979685;28;20034;-68
2023/10/31 08:29:19;;;;;;;0.10;0.10;;;9.80;99.90;;;;;;4984399;28;20027;-66
2023/10/31 08:31:45;;;;;;;0.30;0.20;;;9.80;99.80;;;;;;4984844;28;20387;-65
2023/10/31 08:34:10;;;;;;;0.10;0.10;;;9.80;99.80;;;;;;4997905;28;20080;-66
2023/10/31 08:36:36;;;;;;;0.20;0.20;;;9.80;99.90;;;;;;4989893;28;20053;-65
2023/10/31 08:39:01;;;;;;;0.45;0.25;;;9.80;99.80;;;;;;4995943;28;20035;-67
2023/10/31 08:41:27;;;;;;;0.47;0.20;;;9.80;99.90;;;;;;4989762;28;20057;-65
2023/10/31 08:43:53;;;;;;;0.20;0.20;;;9.80;99.90;;;;;;4986062;28;20033;-65
2023/10/31 08:46:19;;;;;;;1.02;0.35;;;9.80;99.90;;;;;;4985477;28;20030;-66
2023/10/31 08:48:44;;;;;;;0.20;0.20;;;9.80;99.90;;;;;;4993515;28;20105;-65
2023/10/31 08:51:10;;;;;;;0.70;0.30;;;9.80;99.90;;;;;;4988959;28;20038;-69
2023/10/31 08:53:35;;;;;;;0.10;0.10;;;9.80;99.90;;;;;;4988813;28;20121;-67
2023/10/31 08:56:01;;;;;;;0.10;0.10;;;9.70;99.90;;;;;;4994525;28;20030;-66
2023/10/31 08:58:29;;;;;;;0.38;0.30;;;9.70;99.90;;;;;;4984147;28;20042;-66
2023/10/31 09:00:54;;;;;;;0.17;0.10;;;9.70;99.90;;;;;;4991707;28;20605;-66
2023/10/31 09:03:20;;;;;;;0.82;0.40;;;9.80;99.90;;;;;;4990025;28;20054;-66
2023/10/31 09:05:45;;;;;;;0.90;0.30;;;9.80;99.90;;;;;;4982142;28;20043;-66
2023/10/31 09:08:10;;;;;;;0.10;0.10;;;9.80;99.90;;;;;;4990900;28;20034;-67
2023/10/31 09:10:38;;;;;;;0.45;0.20;;;9.80;99.90;;;;;;4988954;28;20039;-65
2023/10/31 09:13:03;;;;;;;0.30;0.10;;;9.70;99.90;;;;;;4984903;28;20026;-66
2023/10/31 09:15:29;;;;;;;0.10;0.10;;;9.70;99.90;;;;;;4992297;28;20104;-66
2023/10/31 09:17:54;;;;;;;0.38;0.30;;;9.70;99.90;;;;;;4991699;28;20066;-66
2023/10/31 09:20:20;;;;;;;0.15;0.15;;;9.70;99.90;;;;;;4995534;28;20038;-66
2023/10/31 09:22:45;;;;;;;0.35;0.28;;;9.60;99.90;;;;;;4985977;28;20031;-67
2023/10/31 09:25:11;;;;;;;0.10;0.10;;;9.60;99.90;;;;;;4988189;28;20582;-66
2023/10/31 09:27:38;;;;;;;0.40;0.30;;;9.60;99.90;;;;;;4985898;28;20188;-66
2023/10/31 09:30:05;;;;;;;0.00;0.00;;;9.60;99.90;;;;;;4983673;28;20034;-67
2023/10/31 09:32:30;;;;;;;0.22;0.20;;;9.70;99.90;;;;;;5000617;28;20046;-68
2023/10/31 09:34:56;;;;;;;0.15;0.15;;;9.70;99.90;;;;;;4985816;28;20439;-68
2023/10/31 09:37:21;;;;;;;0.10;0.10;;;9.80;99.90;;;;;;4994589;28;20034;-67
2023/10/31 09:39:47;;;;;;;0.13;0.13;;;9.80;99.60;;;;;;4987471;28;20062;-68
2023/10/31 09:42:13;;;;;;;0.10;0.10;;;9.90;99.70;;;;;;4989771;28;20495;-67
2023/10/31 09:44:39;;;;;;;0.20;0.20;;;10.00;99.70;;;;;;4978987;28;20041;-67
2023/10/31 09:47:06;;;;;;;0.22;0.10;;;10.10;99.60;;;;;;4986429;28;20026;-68
2023/10/31 09:49:31;;;;;;;0.13;0.10;;;10.10;99.60;;;;;;4984882;28;20074;-67
2023/10/31 09:51:58;;;;;;;0.28;0.20;;;10.10;99.50;;;;;;4984520;28;20506;-66
2023/10/31 09:54:25;;;;;;;0.10;0.10;;;10.10;99.50;;;;;;4986456;28;20025;-66
2023/10/31 09:56:51;;;;;;;0.60;0.35;;;10.00;99.40;;;;;;4982729;28;20121;-68
2023/10/31 09:59:17;;;;;;;0.00;0.00;;;10.10;99.50;;;;;;4982732;28;20617;-66
2023/10/31 10:01:43;;;;;;;0.08;0.05;;;10.10;99.30;;;;;;4978107;28;20486;-69
2023/10/31 10:04:09;;;;;;;0.10;0.10;;;10.00;99.30;;;;;;4987731;28;20052;-66
2023/10/31 10:06:34;;;;;;;0.50;0.20;;;10.10;99.30;;;;;;4982134;28;20061;-65
2023/10/31 10:09:02;;;;;;;0.65;0.20;;;10.10;99.30;;;;;;4983195;28;20092;-66
2023/10/31 10:11:28;;;;;;;0.28;0.20;;;10.10;99.10;;;;;;4983958;28;20055;-66
2023/10/31 10:13:53;;;;;;;0.10;0.10;;;10.10;98.70;;;;;;4979502;28;20480;-70
2023/10/31 10:16:32;;;;;;;0.10;0.10;;;10.00;98.50;;;;;;4982883;28;20471;-66
2023/10/31 10:19:16;;;;;;;0.25;0.20;;;10.00;98.60;;;;;;4997228;28;20721;-68
2023/10/31 10:21:47;;;;;;;0.55;0.22;;;10.00;98.70;;;;;;4983691;28;20145;-67
2023/10/31 10:24:13;;;;;;;;;;;9.90;98.60;;;;;;4980447;28;20034;-68
2023/10/31 10:26:38;;;;;;;0.17;0.10;;;9.90;98.70;;;;;;4986256;28;19917;-69
2023/10/31 10:29:04;;;;;;;0.25;0.25;;;9.80;98.60;;;;;;4983304;28;20046;-68
2023/10/31 10:31:29;;;;;;;0.15;0.15;;;9.80;98.70;;;;;;4987477;28;20129;-65
2023/10/31 10:33:55;;;;;;;0.28;0.10;;;9.80;98.90;;;;;;4985457;28;20125;-66
2023/10/31 10:36:21;;;;;;;0.45;0.22;;;9.80;98.90;;;;;;4984441;28;20494;-65
2023/10/31 10:38:48;;;;;;;0.10;0.10;;;9.80;99.00;;;;;;4983627;28;20022;-67
2023/10/31 10:41:16;;;;;;;0.20;0.20;;;9.80;98.90;;;;;;4975142;28;20081;-66
2023/10/31 10:43:42;;;;;;;0.43;0.30;;;9.80;99.10;;;;;;4983288;28;20030;-68
2023/10/31 10:46:12;;;;;;;0.85;0.20;;;9.90;99.10;;;;;;4982196;28;20030;-66
2023/10/31 10:48:42;;;;;;;0.20;0.20;;;9.90;99.10;;;;;;4978250;28;20380;-67
2023/10/31 10:51:18;;;;;;;0.20;0.20;;;9.90;98.90;;;;;;4990242;28;20034;-66
2023/10/31 10:53:57;;;;;;;2.67;0.77;;;9.90;98.70;;;;;;4985465;28;20038;-71
2023/10/31 10:56:31;;;;;;;0.65;0.28;;;10.00;99.00;;;;;;4979645;28;20149;-66
2023/10/31 10:59:08;;;;;;;0.47;0.20;;;10.00;98.90;;;;;;4978531;28;20031;-66
2023/10/31 11:01:38;;;;;;;0.20;0.20;;;10.10;98.80;;;;;;4984339;28;20045;-65
2023/10/31 11:04:06;;;;;;;0.35;0.28;;;10.00;98.50;;;;;;4988008;28;20477;-66
2023/10/31 11:06:34;;;;;;;0.15;0.15;;;10.00;98.50;;;;;;4988840;28;20355;-67
2023/10/31 11:09:00;;;;;;;0.28;0.28;;;10.10;98.50;;;;;;4989039;28;20034;-66
2023/10/31 11:11:27;;;;;;;1.05;0.43;;;10.10;98.50;;;;;;4979792;28;20042;-68
2023/10/31 11:13:56;;;;;;;3.40;1.10;;;10.10;98.50;;;;;;4980183;28;20073;-67
2023/10/31 11:16:45;;;;;;;1.63;0.52;;;10.00;98.40;;;;;;4984386;28;20068;-66
2023/10/31 11:19:11;;;;;;;1.23;0.60;;;10.00;98.60;;;;;;4992101;28;20041;-66
2023/10/31 11:21:52;;;;;;;0.77;0.28;;;9.90;98.40;;;;;;4989374;28;20045;-66
2023/10/31 11:24:17;;;;;;;0.40;0.30;;;10.00;98.60;;;;;;4982536;28;20487;-65
2023/10/31 11:26:51;;;;;;;0.20;0.20;;;9.90;98.30;;;;;;4982657;28;20062;-66
2023/10/31 11:29:17;;;;;;;0.28;0.25;;;9.90;98.50;;;;;;4983110;28;20628;-65
2023/10/31 11:31:43;;;;;;;0.13;0.13;;;9.90;98.30;;;;;;4988302;28;20125;-66
2023/10/31 11:34:09;;;;;;;0.20;0.20;;;9.90;98.40;;;;;;4977593;28;20117;-66
2023/10/31 11:36:36;;;;;;;0.55;0.35;;;9.90;98.40;;;;;;4984873;28;20049;-65
2023/10/31 11:39:15;;;;;;;0.32;0.20;;;9.90;98.50;;;;;;4988437;28;20110;-66
2023/10/31 11:41:48;;;;;;;0.25;0.20;;;9.80;98.40;;;;;;4988473;28;20034;-65
2023/10/31 11:44:15;;;;;;;0.17;0.17;;;9.90;98.40;;;;;;4979690;28;20042;-64
2023/10/31 11:46:40;;;;;;;0.20;0.20;;;9.90;98.40;;;;;;4977778;28;20043;-65
2023/10/31 11:49:06;;;;;;;0.10;0.10;;;9.90;98.40;;;;;;4990027;28;20045;-67
2023/10/31 11:51:32;;;;;;;0.45;0.15;;;10.00;98.30;;;;;;4984472;28;20141;-67
2023/10/31 11:54:01;;;;;;;0.10;0.10;;;10.00;98.10;;;;;;4989414;28;20109;-67
2023/10/31 11:56:26;;;;;;;0.38;0.20;;;10.10;98.10;;;;;;4987918;28;20026;-66
2023/10/31 11:59:11;;;;;;;0.20;0.15;;;10.30;98.20;;;;;;4988126;28;20061;-66
2023/10/31 12:01:54;;;;;;;0.10;0.10;;;10.20;98.00;;;;;;4980733;28;20040;-66
2023/10/31 12:04:23;;;;;;;1.35;0.52;;;10.20;97.90;;;;;;4984154;28;20252;-66
2023/10/31 12:06:58;;;;;;;4.93;1.55;;;10.10;97.60;;;;;;4990136;28;20373;-69
2023/10/31 12:09:24;;;;;;;3.75;1.00;;;10.10;97.80;;;;;;4988908;28;20058;-69
2023/10/31 12:11:49;;;;;;;1.05;0.70;;;10.10;97.70;;;;;;4984597;28;20038;-67
2023/10/31 12:14:18;;;;;;;0.55;0.50;;;10.10;97.70;;;;;;4982574;28;20125;-66
2023/10/31 12:16:44;;;;;;;5.45;1.10;;;10.00;97.90;;;;;;4983324;28;20460;-67
2023/10/31 12:19:09;;;;;;;0.30;0.17;;;10.00;98.10;;;;;;4983650;28;20069;-66
2023/10/31 12:21:35;;;;;;;17.75;8.13;;;10.10;98.50;;;;;;4979084;28;20038;-66
2023/10/31 12:24:05;;;;;;;1.00;0.60;;;10.00;98.30;;;;;;4984690;28;20034;-66
2023/10/31 12:26:33;;;;;;;1.10;1.02;;;10.00;98.50;;;;;;4981655;28;20128;-68
2023/10/31 12:29:16;;;;;;;1.08;0.35;;;10.10;98.80;;;;;;4983241;28;20026;-66
2023/10/31 12:31:45;;;;;;;0.35;0.32;;;10.00;98.50;;;;;;4978077;28;20038;-67
2023/10/31 12:34:11;;;;;;;1.70;0.30;;;10.10;98.70;;;;;;4989529;28;20026;-66
2023/10/31 12:36:37;;;;;;;0.30;0.30;;;10.10;98.60;;;;;;4986333;28;20038;-67
2023/10/31 12:39:06;;;;;;;0.47;0.20;;;10.10;98.40;;;;;;4986675;28;20502;-67
2023/10/31 12:41:32;;;;;;;0.43;0.20;;;10.30;98.50;;;;;;4980064;28;20038;-65
2023/10/31 12:43:58;;;;;;;1.50;0.40;;;10.40;98.50;;;;;;4981481;28;20080;-66
2023/10/31 12:46:29;;;;;;;0.50;0.38;;;10.40;98.40;;;;;;4981402;28;20117;-66